createdAt,value
2022-08-23T00:02:27.221Z,10.52
2022-08-23T00:05:09.254Z,10.25
2022-08-23T00:07:40.272Z,10.38
2022-08-23T00:10:15.990Z,9.68
2022-08-23T00:12:47.179Z,9.45
2022-08-23T00:15:18.786Z,9.63
2022-08-23T00:17:48.796Z,9.90
2022-08-23T00:20:20.545Z,9.40
2022-08-23T00:22:48.890Z,10.82
2022-08-23T00:25:18.289Z,11.45
2022-08-23T00:27:46.879Z,10.00
2022-08-23T00:30:16.708Z,9.98
2022-08-23T00:32:48.217Z,9.38
2022-08-23T00:35:26.608Z,9.68
2022-08-23T00:38:31.756Z,9.70
2022-08-23T00:40:51.535Z,9.98
2022-08-23T00:43:47.784Z,9.90
2022-08-23T00:47:03.482Z,9.68
2022-08-23T00:49:33.862Z,10.13
2022-08-23T00:52:26.154Z,10.00
2022-08-23T00:54:55.201Z,9.15
2022-08-23T00:57:23.754Z,9.40
2022-08-23T00:59:51.889Z,9.70
2022-08-23T01:02:20.530Z,9.05
2022-08-23T01:05:00.537Z,10.27
2022-08-23T01:07:46.401Z,10.10
2022-08-23T01:10:32.305Z,8.38
2022-08-23T01:13:15.489Z,9.18
2022-08-23T01:15:57.286Z,9.55
2022-08-23T01:18:28.733Z,10.00
2022-08-23T01:21:14.607Z,8.98
2022-08-23T01:23:51.794Z,8.65
2022-08-23T01:26:23.231Z,8.95
2022-08-23T01:28:53.875Z,9.93
2022-08-23T01:31:24.148Z,9.77
2022-08-23T01:34:07.652Z,9.52
2022-08-23T01:36:37.741Z,9.73
2022-08-23T01:39:08.333Z,10.77
2022-08-23T01:41:38.960Z,10.80
2022-08-23T01:44:08.925Z,10.75
2022-08-23T01:46:39.044Z,11.35
2022-08-23T01:49:08.501Z,11.43
2022-08-23T01:51:37.666Z,10.88
2022-08-23T01:54:06.632Z,11.05
2022-08-23T01:56:38.646Z,10.90
2022-08-23T01:59:11.184Z,10.02
2022-08-23T02:01:44.791Z,10.43
2022-08-23T02:04:13.058Z,11.02
2022-08-23T02:06:41.075Z,10.88
2022-08-23T02:09:17.910Z,10.88
2022-08-23T02:11:48.320Z,11.00
2022-08-23T02:14:20.962Z,11.38
2022-08-23T02:17:03.009Z,10.80
2022-08-23T02:19:37.982Z,11.98
2022-08-23T02:22:08.948Z,11.18
2022-08-23T02:24:42.964Z,12.18
2022-08-23T02:27:14.895Z,11.65
2022-08-23T02:29:46.655Z,12.27
2022-08-23T02:32:18.122Z,12.52
2022-08-23T02:34:59.882Z,12.77
2022-08-23T02:37:34.516Z,12.57
2022-08-23T02:40:06.452Z,13.43
2022-08-23T02:42:34.885Z,13.38
2022-08-23T02:45:04.422Z,14.00
2022-08-23T02:47:38.659Z,13.27
2022-08-23T02:50:16.724Z,13.23
2022-08-23T02:52:45.915Z,13.20
2022-08-23T02:55:14.802Z,13.20
2022-08-23T02:57:43.179Z,12.10
2022-08-23T03:00:15.305Z,13.18
2022-08-23T03:02:44.616Z,13.65
2022-08-23T03:05:14.357Z,13.80
2022-08-23T03:07:43.417Z,13.18
2022-08-23T03:10:12.803Z,14.00
2022-08-23T03:12:47.629Z,14.27
2022-08-23T03:15:15.722Z,14.07
2022-08-23T03:17:43.674Z,14.07
2022-08-23T03:20:11.986Z,13.80
2022-08-23T03:22:40.394Z,15.40
2022-08-23T03:25:19.256Z,15.30
2022-08-23T03:28:13.594Z,14.90
2022-08-23T03:30:46.190Z,13.93
2022-08-23T03:33:15.837Z,13.55
2022-08-23T03:35:48.970Z,14.43
2022-08-23T03:38:20.400Z,14.85
2022-08-23T03:40:52.505Z,14.07
2022-08-23T03:45:50.182Z,14.45
2022-08-23T03:48:18.624Z,13.15
2022-08-23T03:50:47.569Z,14.70
2022-08-23T03:53:16.358Z,14.98
2022-08-23T03:55:46.907Z,14.88
2022-08-23T03:58:18.384Z,16.00
2022-08-23T04:00:46.638Z,15.38
2022-08-23T04:03:15.123Z,14.35
2022-08-23T04:06:04.397Z,13.48
2022-08-23T04:08:33.553Z,12.68
2022-08-23T04:11:06.537Z,12.90
2022-08-23T04:13:36.525Z,14.05
2022-08-23T04:16:05.674Z,14.43
2022-08-23T04:18:35.309Z,13.98
2022-08-23T04:21:10.717Z,13.60
2022-08-23T04:23:40.047Z,13.80
2022-08-23T04:26:09.727Z,12.90
2022-08-23T04:28:41.771Z,13.13
2022-08-23T04:31:09.848Z,13.02
2022-08-23T04:33:41.077Z,12.50
2022-08-23T04:38:41.047Z,11.10
2022-08-23T04:41:30.401Z,11.18
2022-08-23T04:43:59.778Z,11.23
2022-08-23T04:46:29.288Z,11.50
2022-08-23T04:49:01.211Z,11.07
2022-08-23T04:51:29.490Z,11.45
2022-08-23T04:53:57.662Z,10.43
2022-08-23T04:56:44.686Z,11.95
2022-08-23T04:59:20.252Z,11.10
2022-08-23T05:01:51.040Z,10.23
2022-08-23T05:04:19.252Z,10.27
2022-08-23T05:06:47.760Z,10.38
2022-08-23T05:09:20.333Z,9.88
2022-08-23T05:11:49.507Z,9.63
2022-08-23T05:14:18.681Z,9.90
2022-08-23T05:16:50.253Z,8.82
2022-08-23T05:19:18.327Z,9.30
2022-08-23T05:21:48.565Z,10.00
2022-08-23T05:24:17.162Z,8.95
2022-08-23T05:26:48.191Z,9.10
2022-08-23T05:29:17.400Z,8.68
2022-08-23T05:31:49.800Z,7.90
2022-08-23T05:34:22.819Z,8.75
2022-08-23T05:36:57.185Z,8.77
2022-08-23T05:39:35.949Z,8.25
2022-08-23T05:42:16.155Z,8.45
2022-08-23T05:44:45.994Z,8.18
2022-08-23T05:47:17.055Z,8.52
2022-08-23T05:50:00.103Z,7.93
2022-08-23T05:52:31.305Z,8.02
2022-08-23T05:54:59.405Z,8.73
2022-08-23T05:57:48.022Z,7.60
2022-08-23T06:00:16.439Z,7.80
2022-08-23T06:02:49.425Z,8.25
2022-08-23T06:05:20.668Z,7.93
2022-08-23T06:07:50.687Z,8.57
2022-08-23T06:10:21.681Z,7.90
2022-08-23T06:12:56.130Z,8.50
2022-08-23T06:15:25.337Z,8.00
2022-08-23T06:17:53.473Z,8.18
2022-08-23T06:20:22.571Z,8.93
2022-08-23T06:23:05.947Z,8.10
2022-08-23T06:25:39.371Z,8.63
2022-08-23T06:28:15.691Z,8.15
2022-08-23T06:30:44.375Z,8.13
2022-08-23T06:33:14.951Z,8.13
2022-08-23T06:36:11.070Z,8.05
2022-08-23T06:39:16.013Z,8.15
2022-08-23T06:42:34.506Z,8.23
2022-08-23T06:45:04.535Z,8.52
2022-08-23T06:47:43.153Z,8.25
2022-08-23T06:50:11.552Z,7.90
2022-08-23T06:53:12.709Z,7.38
2022-08-23T06:55:50.559Z,8.07
2022-08-23T06:58:27.233Z,7.50
2022-08-23T07:01:49.550Z,7.60
2022-08-23T07:04:41.487Z,7.75
2022-08-23T07:07:11.946Z,8.30
2022-08-23T07:09:41.586Z,7.50
2022-08-23T07:12:11.215Z,7.10
2022-08-23T07:14:42.665Z,8.02
2022-08-23T07:17:12.851Z,7.05
2022-08-23T07:19:44.227Z,7.10
2022-08-23T07:22:15.559Z,7.00
2022-08-23T07:24:44.196Z,7.53
2022-08-23T07:27:12.499Z,7.28
2022-08-23T07:29:55.794Z,7.80
2022-08-23T07:32:23.922Z,6.72
2022-08-23T07:34:57.584Z,6.80
2022-08-23T07:37:28.316Z,6.57
2022-08-23T07:39:58.445Z,6.75
2022-08-23T07:42:27.502Z,7.20
2022-08-23T07:44:57.752Z,7.68
2022-08-23T07:47:29.880Z,6.68
2022-08-23T07:50:01.118Z,6.82
2022-08-23T07:52:31.569Z,7.53
2022-08-23T07:54:59.782Z,7.10
2022-08-23T07:57:39.546Z,7.07
2022-08-23T08:00:27.626Z,7.72
2022-08-23T08:03:07.198Z,7.10
2022-08-23T08:05:59.614Z,7.30
2022-08-23T08:08:28.273Z,6.55
2022-08-23T08:10:56.544Z,6.88
2022-08-23T08:13:25.051Z,7.50
2022-08-23T08:15:53.972Z,8.02
2022-08-23T08:18:25.571Z,8.10
2022-08-23T08:21:15.965Z,7.32
2022-08-23T08:24:17.080Z,8.80
2022-08-23T08:26:49.570Z,7.53
2022-08-23T08:29:18.853Z,7.60
2022-08-23T08:31:52.394Z,7.32
2022-08-23T08:34:22.873Z,8.32
2022-08-23T08:36:55.463Z,8.40
2022-08-23T08:39:31.672Z,7.20
2022-08-23T08:42:47.431Z,7.30
2022-08-23T08:45:28.083Z,8.25
2022-08-23T08:48:13.203Z,8.10
2022-08-23T08:50:56.993Z,7.75
2022-08-23T08:53:40.132Z,7.35
2022-08-23T08:56:32.686Z,9.20
2022-08-23T08:59:53.617Z,7.35
2022-08-23T09:02:33.355Z,7.25
2022-08-23T09:05:38.483Z,7.78
2022-08-23T09:08:39.429Z,8.75
2022-08-23T09:11:42.987Z,7.25
2022-08-23T09:14:44.993Z,8.10
2022-08-23T09:17:32.192Z,8.63
2022-08-23T09:20:06.506Z,8.45
2022-08-23T09:22:47.788Z,8.70
2022-08-23T09:25:25.998Z,8.40
2022-08-23T09:28:04.457Z,9.75
2022-08-23T09:31:08.320Z,8.05
2022-08-23T09:33:49.469Z,8.07
2022-08-23T09:36:39.870Z,9.70
2022-08-23T09:39:30.523Z,9.95
2022-08-23T09:42:08.962Z,8.52
2022-08-23T09:44:42.183Z,8.55
2022-08-23T09:47:17.558Z,9.10
2022-08-23T09:49:54.289Z,8.02
2022-08-23T09:52:33.009Z,9.43
2022-08-23T09:55:36.370Z,8.70
2022-08-23T09:58:18.878Z,7.78
2022-08-23T10:01:19.696Z,9.70
2022-08-23T10:04:24.795Z,7.93
2022-08-23T10:06:53.923Z,10.18
2022-08-23T10:09:32.992Z,9.45
2022-08-23T10:12:07.529Z,8.25
2022-08-23T10:14:36.448Z,8.75
2022-08-23T10:17:25.061Z,8.73
2022-08-23T10:20:04.860Z,8.35
2022-08-23T10:23:05.060Z,8.82
2022-08-23T10:25:54.003Z,8.70
2022-08-23T10:29:10.212Z,8.57
2022-08-23T10:31:41.612Z,8.90
2022-08-23T10:34:31.033Z,8.05
2022-08-23T10:37:54.755Z,9.90
2022-08-23T10:41:01.576Z,10.20
2022-08-23T10:43:52.892Z,8.80
2022-08-23T10:46:23.575Z,9.38
2022-08-23T10:51:42.902Z,10.35
2022-08-23T10:54:46.317Z,9.82
2022-08-23T10:57:22.064Z,8.57
2022-08-23T10:59:52.303Z,9.20
2022-08-23T11:02:43.090Z,8.25
2022-08-23T11:05:35.623Z,8.82
2022-08-23T11:08:35.179Z,9.65
2022-08-23T11:11:43.261Z,8.68
2022-08-23T11:14:28.300Z,8.80
2022-08-23T11:17:01.207Z,9.88
2022-08-23T11:20:00.795Z,8.57
2022-08-23T11:22:34.829Z,7.68
2022-08-23T11:25:27.040Z,8.32
2022-08-23T11:28:30.417Z,8.13
2022-08-23T11:31:11.822Z,7.07
2022-08-23T11:34:11.185Z,7.57
2022-08-23T11:36:45.972Z,8.15
2022-08-23T11:39:19.640Z,8.38
2022-08-23T11:41:54.468Z,10.23
2022-08-23T11:44:34.197Z,9.65
2022-08-23T11:47:08.330Z,8.45
2022-08-23T11:50:15.079Z,10.75
2022-08-23T11:52:52.082Z,8.88
2022-08-23T11:55:50.938Z,7.95
2022-08-23T11:58:54.338Z,9.27
2022-08-23T12:01:39.449Z,9.93
2022-08-23T12:04:37.936Z,9.80
2022-08-23T12:07:12.914Z,7.28
2022-08-23T12:09:41.095Z,8.95
2022-08-23T12:12:25.665Z,9.02
2022-08-23T12:15:02.169Z,10.20
2022-08-23T12:17:34.037Z,8.48
2022-08-23T12:20:16.911Z,8.48
2022-08-23T12:23:15.097Z,7.65
2022-08-23T12:25:44.178Z,9.27
2022-08-23T12:28:40.837Z,10.18
2022-08-23T12:31:36.713Z,9.23
2022-08-23T12:34:32.294Z,9.00
2022-08-23T12:37:31.430Z,7.68
2022-08-23T12:40:02.988Z,10.15
2022-08-23T12:42:38.485Z,9.20
2022-08-23T12:45:20.596Z,9.93
2022-08-23T12:48:01.857Z,9.07
2022-08-23T12:50:38.367Z,8.40
2022-08-23T12:53:14.989Z,9.85
2022-08-23T12:55:51.342Z,10.13
2022-08-23T12:58:33.266Z,9.85
2022-08-23T13:01:31.976Z,8.07
2022-08-23T13:04:06.537Z,8.75
2022-08-23T13:06:49.612Z,10.68
2022-08-23T13:09:28.041Z,8.70
2022-08-23T13:11:59.742Z,9.95
2022-08-23T13:14:40.373Z,8.02
2022-08-23T13:17:25.633Z,9.07
2022-08-23T13:20:01.479Z,9.73
2022-08-23T13:22:32.093Z,9.75
2022-08-23T13:27:49.581Z,8.82
2022-08-23T13:30:25.652Z,9.15
2022-08-23T13:33:13.666Z,9.98
2022-08-23T13:35:52.050Z,10.48
2022-08-23T13:38:32.545Z,9.80
2022-08-23T13:41:13.963Z,8.02
2022-08-23T13:43:45.312Z,8.45
2022-08-23T13:46:22.903Z,8.40
2022-08-23T13:49:04.090Z,8.98
2022-08-23T13:51:38.842Z,9.18
2022-08-23T13:54:15.592Z,9.13
2022-08-23T13:56:53.346Z,8.93
2022-08-23T13:59:34.990Z,8.38
2022-08-23T14:02:12.382Z,7.20
2022-08-23T14:04:42.182Z,7.50
2022-08-23T14:07:12.635Z,7.78
2022-08-23T14:09:41.056Z,8.18
2022-08-23T14:12:19.191Z,7.85
2022-08-23T14:14:48.430Z,7.78
2022-08-23T14:17:20.620Z,7.18
2022-08-23T14:22:37.639Z,8.13
2022-08-23T14:25:07.688Z,7.32
2022-08-23T14:27:36.044Z,8.73
2022-08-23T14:30:05.840Z,9.05
2022-08-23T14:32:34.510Z,9.38
2022-08-23T14:35:02.545Z,8.05
2022-08-23T14:40:20.688Z,7.57
2022-08-23T14:42:49.536Z,6.50
2022-08-23T14:45:18.503Z,6.70
2022-08-23T14:47:47.368Z,7.03
2022-08-23T14:50:16.106Z,7.55
2022-08-23T14:52:48.111Z,7.07
2022-08-23T14:55:16.696Z,6.63
2022-08-23T14:57:44.815Z,6.88
2022-08-23T15:00:14.480Z,7.30
2022-08-23T15:02:48.889Z,6.07
2022-08-23T15:05:18.717Z,6.95
2022-08-23T15:07:46.946Z,5.57
2022-08-23T15:13:28.433Z,6.82
2022-08-23T15:15:54.143Z,7.07
2022-08-23T15:18:23.155Z,7.90
2022-08-23T15:20:51.360Z,6.55
2022-08-23T15:23:21.338Z,8.38
2022-08-23T15:25:50.549Z,7.70
2022-08-23T15:28:21.822Z,7.00
2022-08-23T15:30:51.861Z,8.85
2022-08-23T15:33:25.342Z,7.88
2022-08-23T15:35:57.414Z,5.97
2022-08-23T15:38:26.637Z,6.75
2022-08-23T15:40:56.384Z,7.50
2022-08-23T15:43:34.395Z,6.80
2022-08-23T15:46:07.546Z,7.05
2022-08-23T15:48:55.531Z,6.22
2022-08-23T15:51:25.336Z,6.75
2022-08-23T15:53:53.854Z,7.07
2022-08-23T15:56:45.000Z,5.82
2022-08-23T15:59:19.595Z,7.13
2022-08-23T16:01:50.207Z,7.85
2022-08-23T16:04:18.790Z,7.70
2022-08-23T16:06:48.450Z,6.30
2022-08-23T16:09:24.936Z,6.65
2022-08-23T16:11:57.127Z,6.40
2022-08-23T16:14:28.318Z,6.57
2022-08-23T16:16:56.840Z,6.20
2022-08-23T16:19:26.700Z,6.30
2022-08-23T16:21:57.761Z,6.57
2022-08-23T16:24:27.968Z,6.70
2022-08-23T16:26:56.696Z,5.53
2022-08-23T16:29:25.100Z,6.97
2022-08-23T16:31:53.821Z,6.72
2022-08-23T16:34:22.171Z,6.22
2022-08-23T16:36:59.177Z,6.20
2022-08-23T16:39:28.495Z,6.75
2022-08-23T16:41:56.935Z,6.57
2022-08-23T16:44:25.260Z,6.65
2022-08-23T16:46:53.931Z,6.07
2022-08-23T16:49:22.238Z,6.82
2022-08-23T16:51:50.924Z,6.55
2022-08-23T16:54:20.304Z,5.97
2022-08-23T16:56:48.755Z,6.75
2022-08-23T16:59:16.763Z,6.20
2022-08-23T17:01:58.969Z,6.13
2022-08-23T17:04:30.791Z,6.25
2022-08-23T17:07:00.592Z,5.85
2022-08-23T17:09:29.349Z,6.68
2022-08-23T17:12:01.370Z,6.53
2022-08-23T17:14:29.620Z,6.03
2022-08-23T17:16:58.105Z,5.57
2022-08-23T17:19:26.319Z,6.03
2022-08-23T17:21:54.442Z,6.72
2022-08-23T17:24:24.506Z,6.45
2022-08-23T17:26:52.687Z,6.60
2022-08-23T17:29:20.689Z,5.25
2022-08-23T17:31:49.097Z,6.30
2022-08-23T17:34:17.271Z,5.95
2022-08-23T17:36:52.815Z,5.82
2022-08-23T17:39:27.765Z,5.57
2022-08-23T17:41:59.194Z,5.47
2022-08-23T17:44:27.239Z,4.43
2022-08-23T17:46:55.535Z,5.78
2022-08-23T17:49:23.881Z,6.30
2022-08-23T17:51:52.037Z,5.90
2022-08-23T17:54:22.490Z,6.53
2022-08-23T17:56:51.351Z,5.85
2022-08-23T17:59:21.258Z,7.22
2022-08-23T18:01:49.523Z,6.35
2022-08-23T18:04:18.307Z,5.70
2022-08-23T18:06:46.877Z,6.22
2022-08-23T18:09:15.802Z,6.72
2022-08-23T18:11:44.161Z,6.53
2022-08-23T18:14:12.663Z,6.13
2022-08-23T18:16:41.584Z,6.65
2022-08-23T18:19:13.473Z,7.00
2022-08-23T18:21:45.509Z,6.72
2022-08-23T18:24:14.262Z,7.35
2022-08-23T18:27:03.758Z,7.13
2022-08-23T18:30:47.773Z,6.88
2022-08-23T18:34:34.406Z,8.15
2022-08-23T18:37:03.763Z,6.07
2022-08-23T18:39:32.422Z,8.05
2022-08-23T18:42:04.382Z,7.35
2022-08-23T18:44:32.999Z,8.13
2022-08-23T18:47:04.949Z,7.78
2022-08-23T18:49:35.844Z,10.70
2022-08-23T18:52:05.221Z,9.88
2022-08-23T18:54:34.580Z,9.75
2022-08-23T18:57:06.739Z,11.95
2022-08-23T18:59:37.960Z,11.00
2022-08-23T19:02:06.310Z,11.52
2022-08-23T19:04:34.771Z,9.38
2022-08-23T19:07:04.113Z,10.35
2022-08-23T19:09:32.363Z,8.43
2022-08-23T19:12:01.427Z,7.88
2022-08-23T19:14:30.556Z,7.65
2022-08-23T19:17:08.501Z,7.93
2022-08-23T19:19:36.882Z,7.28
2022-08-23T19:22:05.366Z,6.95
2022-08-23T19:24:34.167Z,7.53
2022-08-23T19:27:02.698Z,6.80
2022-08-23T19:29:32.074Z,7.32
2022-08-23T19:32:01.194Z,6.70
2022-08-23T19:34:30.263Z,7.63
2022-08-23T19:37:01.511Z,7.57
2022-08-23T19:39:31.049Z,7.90
2022-08-23T19:41:59.424Z,6.82
2022-08-23T19:44:28.386Z,8.00
2022-08-23T19:46:57.649Z,7.07
2022-08-23T19:49:27.092Z,6.18
2022-08-23T19:51:56.643Z,7.90
2022-08-23T19:54:28.807Z,6.82
2022-08-23T19:57:00.546Z,7.03
2022-08-23T19:59:33.308Z,7.10
2022-08-23T20:02:02.864Z,7.78
2022-08-23T20:04:34.358Z,6.90
2022-08-23T20:07:07.769Z,7.15
2022-08-23T20:09:37.052Z,6.43
2022-08-23T20:12:06.794Z,6.88
2022-08-23T20:14:35.707Z,6.47
2022-08-23T20:17:07.611Z,5.78
2022-08-23T20:19:36.661Z,6.32
2022-08-23T20:22:24.005Z,5.95
2022-08-23T20:24:53.219Z,7.05
2022-08-23T20:27:28.427Z,6.22
2022-08-23T20:30:01.818Z,6.88
2022-08-23T20:33:16.431Z,5.83
2022-08-23T20:35:44.658Z,6.10
2022-08-23T20:46:44.720Z,7.55
2022-08-23T21:03:21.711Z,7.07
2022-08-23T21:10:29.501Z,6.28
2022-08-23T21:22:15.379Z,7.30
2022-08-23T21:29:21.586Z,6.97
2022-08-23T21:41:12.197Z,7.40
2022-08-23T21:48:18.607Z,7.03
2022-08-23T21:51:12.922Z,8.02
2022-08-23T22:02:55.808Z,6.97
2022-08-23T22:14:38.933Z,6.72
2022-08-23T22:18:06.873Z,6.70
2022-08-23T22:29:54.885Z,6.18
2022-08-23T22:36:56.206Z,7.68
